Time;durP1;ratioP1;P1;durP2;ratioP2;P2;SDS_P1;SDS_P2;PMS_P1;PMS_P2;Temp;Humidity;BMP_temperature;BMP_pressure;BME280_temperature;BME280_humidity;BME280_pressure;Samples;Min_cycle;Max_cycle;Signal;HPM_P1;HPM_P2
2021/05/30 00:00:36;;;;;;;9.60;6.80;;;;;;;9.41;100.00;102156.88;4973041;28;20240;-76
2021/05/30 00:03:05;;;;;;;9.20;6.97;;;;;;;9.50;100.00;102155.50;4956997;28;20187;-76
2021/05/30 00:05:33;;;;;;;7.83;7.00;;;;;;;9.56;100.00;102154.59;4972819;28;20257;-76
2021/05/30 00:08:01;;;;;;;10.90;7.00;;;;;;;9.50;100.00;102152.78;4958235;28;20671;-76
2021/05/30 00:10:26;;;;;;;8.73;6.87;;;;;;;9.45;100.00;102155.34;4942689;28;20262;-75
2021/05/30 00:12:55;;;;;;;7.00;6.27;;;;;;;9.33;100.00;102154.47;4942142;28;20182;-76
2021/05/30 00:15:23;;;;;;;8.70;6.67;;;;;;;9.31;100.00;102151.16;4957798;28;20304;-76
2021/05/30 00:17:48;;;;;;;10.03;6.63;;;;;;;9.32;100.00;102150.09;4941519;28;20237;-76
2021/05/30 00:20:16;;;;;;;9.87;6.50;;;;;;;9.24;100.00;102147.69;4957505;28;20191;-75
2021/05/30 00:22:45;;;;;;;6.80;5.90;;;;;;;9.21;100.00;102140.00;4956459;28;20202;-76
2021/05/30 00:25:11;;;;;;;7.03;5.93;;;;;;;9.01;100.00;102147.56;4940500;28;20241;-75
2021/05/30 00:27:39;;;;;;;8.73;6.73;;;;;;;9.02;100.00;102140.25;4940283;28;20190;-78
2021/05/30 00:30:05;;;;;;;8.97;6.60;;;;;;;9.13;100.00;102136.78;4974528;28;20265;-75
2021/05/30 00:32:31;;;;;;;9.73;6.50;;;;;;;9.07;100.00;102138.53;4940289;28;20228;-76
2021/05/30 00:34:57;;;;;;;8.50;6.10;;;;;;;8.95;100.00;102134.91;4941308;28;20202;-75
2021/05/30 00:37:22;;;;;;;9.77;6.77;;;;;;;8.88;100.00;102136.03;4941451;28;20246;-75
2021/05/30 00:39:48;;;;;;;8.10;6.00;;;;;;;8.77;100.00;102141.38;4940779;28;20640;-75
2021/05/30 00:42:17;;;;;;;9.63;7.33;;;;;;;8.69;100.00;102142.50;4938939;28;20221;-75
2021/05/30 00:44:43;;;;;;;9.63;7.10;;;;;;;8.42;100.00;102147.56;4957192;28;20213;-75
2021/05/30 00:47:08;;;;;;;8.70;6.80;;;;;;;8.50;100.00;102146.22;4939684;28;20226;-76
2021/05/30 00:49:36;;;;;;;8.63;6.57;;;;;;;8.53;100.00;102139.53;4956980;28;20187;-77
2021/05/30 00:52:06;;;;;;;8.27;6.87;;;;;;;8.65;100.00;102143.16;4955181;28;20229;-75
2021/05/30 00:54:34;;;;;;;8.47;6.50;;;;;;;8.70;100.00;102137.88;4956777;28;20226;-75
2021/05/30 00:56:59;;;;;;;9.20;7.30;;;;;;;8.68;100.00;102142.72;4971633;28;20240;-76
2021/05/30 00:59:25;;;;;;;10.90;7.23;;;;;;;8.62;100.00;102138.19;4939764;28;20183;-75
2021/05/30 01:01:51;;;;;;;9.03;7.17;;;;;;;8.59;100.00;102150.31;4970632;28;20234;-75
2021/05/30 01:04:19;;;;;;;9.00;7.20;;;;;;;8.45;100.00;102145.22;4940968;28;20272;-75
2021/05/30 01:06:45;;;;;;;10.03;7.47;;;;;;;8.34;100.00;102154.06;4939449;28;20234;-75
2021/05/30 01:09:10;;;;;;;9.93;7.17;;;;;;;8.31;100.00;102157.22;4956150;28;20179;-75
2021/05/30 01:11:36;;;;;;;8.23;7.10;;;;;;;8.24;100.00;102152.91;4971335;28;20226;-76
2021/05/30 01:14:05;;;;;;;7.43;6.33;;;;;;;8.23;100.00;102149.38;4955365;28;20710;-75
2021/05/30 01:16:30;;;;;;;8.40;6.37;;;;;;;8.17;100.00;102147.56;4939196;28;20241;-76
2021/05/30 01:18:58;;;;;;;8.30;6.53;;;;;;;7.94;100.00;102156.44;4955613;28;20218;-75
2021/05/30 01:21:24;;;;;;;9.60;6.37;;;;;;;7.94;100.00;102159.97;4972486;28;20283;-75
2021/05/30 01:23:55;;;;;;;7.73;6.90;;;;;;;7.88;100.00;102154.63;4972338;28;20290;-76
2021/05/30 01:26:21;;;;;;;9.00;6.50;;;;;;;7.81;100.00;102160.06;4935395;29;20700;-75
2021/05/30 01:28:47;;;;;;;9.90;7.10;;;;;;;7.80;100.00;102169.22;4952525;29;20183;-75
2021/05/30 01:31:13;;;;;;;9.40;7.20;;;;;;;7.83;100.00;102173.38;4952017;28;20234;-75
2021/05/30 01:33:38;;;;;;;10.43;6.87;;;;;;;7.79;100.00;102172.97;4951427;29;20193;-75
2021/05/30 01:36:04;;;;;;;10.30;6.93;;;;;;;7.79;100.00;102166.75;4935602;28;20219;-75
2021/05/30 01:38:30;;;;;;;9.07;7.60;;;;;;;7.93;100.00;102174.56;4968506;28;20593;-75
2021/05/30 01:40:59;;;;;;;9.00;7.40;;;;;;;8.05;100.00;102161.97;4939710;28;20276;-75
2021/05/30 01:43:27;;;;;;;8.73;6.60;;;;;;;8.07;100.00;102160.69;4938439;28;20190;-75
2021/05/30 01:45:55;;;;;;;9.83;7.73;;;;;;;8.20;100.00;102160.63;4970430;28;20400;-75
2021/05/30 01:48:20;;;;;;;10.33;6.93;;;;;;;8.15;100.00;102163.19;4939410;28;20656;-76
2021/05/30 01:50:49;;;;;;;10.10;7.70;;;;;;;8.23;100.00;102160.19;4954763;28;20296;-75
2021/05/30 01:53:17;;;;;;;9.90;7.63;;;;;;;8.22;100.00;102171.25;4939011;28;20186;-75
2021/05/30 01:58:25;;;;;;;10.27;6.87;;;;;;;8.15;100.00;102162.34;4957027;28;20250;-75
2021/05/30 02:00:51;;;;;;;8.93;7.03;;;;;;;8.14;100.00;102161.50;4954628;28;20644;-76
2021/05/30 02:03:20;;;;;;;7.97;6.37;;;;;;;8.02;100.00;102165.09;4938398;28;20190;-75
2021/05/30 02:05:54;;;;;;;8.17;6.63;;;;;;;7.99;100.00;102162.03;4950783;28;20292;-75
2021/05/30 02:08:20;;;;;;;8.20;6.57;;;;;;;8.01;100.00;102154.53;4957620;28;20648;-76
2021/05/30 02:10:45;;;;;;;6.80;6.10;;;;;;;7.97;100.00;102153.31;4955814;28;20226;-77
2021/05/30 02:13:12;;;;;;;7.57;6.20;;;;;;;7.86;100.00;102156.72;4940407;28;20174;-76
2021/05/30 02:15:39;;;;;;;8.80;6.77;;;;;;;7.97;100.00;102153.31;4955911;28;20222;-74
2021/05/30 02:18:05;;;;;;;7.50;6.70;;;;;;;7.94;100.00;102153.75;4940007;28;20692;-76
2021/05/30 02:20:33;;;;;;;8.53;7.23;;;;;;;8.08;100.00;102151.53;4938358;28;20233;-76
2021/05/30 02:23:01;;;;;;;8.27;6.77;;;;;;;8.03;100.00;102155.97;4969985;28;20198;-77
2021/05/30 02:25:30;;;;;;;9.43;7.20;;;;;;;7.99;100.00;102145.81;4971257;28;20257;-74
2021/05/30 02:27:56;;;;;;;7.17;6.30;;;;;;;7.94;100.00;102154.56;4970614;28;20193;-77
2021/05/30 02:30:24;;;;;;;7.73;6.33;;;;;;;7.86;100.00;102156.72;4969540;28;20556;-76
2021/05/30 02:32:52;;;;;;;8.10;5.73;;;;;;;7.80;100.00;102158.41;4953885;28;20222;-76
2021/05/30 02:35:22;;;;;;;6.80;6.10;;;;;;;7.58;100.00;102153.56;4953906;28;20293;-76
2021/05/30 02:37:48;;;;;;;8.27;6.10;;;;;;;7.61;100.00;102157.69;4939074;28;20217;-76
2021/05/30 02:40:16;;;;;;;8.07;7.13;;;;;;;7.51;100.00;102158.16;4922315;28;20182;-76
2021/05/30 02:42:45;;;;;;;8.27;6.70;;;;;;;7.50;100.00;102161.91;4953789;28;20174;-76
2021/05/30 02:45:11;;;;;;;8.43;7.30;;;;;;;7.53;100.00;102158.78;4938383;28;20194;-76
2021/05/30 02:47:36;;;;;;;9.20;6.53;;;;;;;7.58;100.00;102163.53;4954082;28;20977;-76
2021/05/30 02:50:04;;;;;;;8.93;6.37;;;;;;;7.66;100.00;102164.94;4953424;28;20182;-76
2021/05/30 02:52:29;;;;;;;8.43;7.00;;;;;;;7.66;100.00;102161.41;4937064;28;20234;-75
2021/05/30 02:54:55;;;;;;;7.93;7.10;;;;;;;7.64;100.00;102163.50;4954141;28;20252;-76
2021/05/30 02:57:21;;;;;;;8.17;6.47;;;;;;;7.54;100.00;102157.72;4937871;28;20233;-76
2021/05/30 02:59:46;;;;;;;11.17;7.03;;;;;;;7.35;100.00;102163.22;4954422;28;20182;-76
2021/05/30 03:02:12;;;;;;;9.20;7.03;;;;;;;7.43;100.00;102161.09;4968514;28;20225;-75
2021/05/30 03:04:41;;;;;;;8.93;6.37;;;;;;;7.45;100.00;102164.41;4955045;28;20190;-75
2021/05/30 03:07:07;;;;;;;7.17;6.47;;;;;;;7.30;100.00;102166.56;4954376;28;20329;-76
2021/05/30 03:09:33;;;;;;;9.47;7.10;;;;;;;7.58;100.00;102166.22;4971206;28;20273;-76
2021/05/30 03:12:00;;;;;;;9.57;6.53;;;;;;;7.55;100.00;102170.19;4937857;28;20234;-75
2021/05/30 03:14:26;;;;;;;7.17;5.83;;;;;;;7.48;100.00;102163.16;4972595;28;20192;-76
2021/05/30 03:16:54;;;;;;;9.73;6.63;;;;;;;7.57;100.00;102172.69;4955350;28;20226;-76
2021/05/30 03:19:21;;;;;;;10.00;6.93;;;;;;;7.63;100.00;102167.25;4957134;28;20196;-77
2021/05/30 03:21:49;;;;;;;7.33;6.63;;;;;;;7.55;100.00;102170.19;4939523;28;20234;-76
2021/05/30 03:24:19;;;;;;;9.00;7.47;;;;;;;7.50;100.00;102180.00;4958045;28;20231;-76
2021/05/30 03:26:51;;;;;;;10.63;6.87;;;;;;;7.37;100.00;102167.38;4940657;28;20253;-76
2021/05/30 03:29:16;;;;;;;9.33;7.17;;;;;;;7.39;100.00;102170.69;4974174;28;20549;-76
2021/05/30 03:31:42;;;;;;;9.30;6.73;;;;;;;7.26;100.00;102177.19;4940920;28;20273;-76
2021/05/30 03:34:08;;;;;;;9.73;7.03;;;;;;;7.35;100.00;102176.75;4972380;28;20193;-77
2021/05/30 03:36:36;;;;;;;9.03;6.73;;;;;;;7.32;100.00;102175.28;4953765;28;20230;-75
2021/05/30 03:39:06;;;;;;;7.60;6.80;;;;;;;7.33;100.00;102171.53;4934840;29;20207;-76
2021/05/30 03:41:36;;;;;;;8.27;6.63;;;;;;;7.32;100.00;102169.88;4950574;28;20229;-76
2021/05/30 03:44:04;;;;;;;9.40;6.17;;;;;;;7.31;100.00;102178.22;4950795;28;20195;-76
2021/05/30 03:46:30;;;;;;;8.60;6.40;;;;;;;7.36;100.00;102165.72;4934422;28;20234;-76
2021/05/30 03:48:56;;;;;;;7.27;6.27;;;;;;;7.49;100.00;102168.38;4935211;29;20194;-76
2021/05/30 03:51:24;;;;;;;7.13;6.00;;;;;;;7.45;100.00;102175.22;4951049;28;20711;-76
2021/05/30 03:53:50;;;;;;;7.13;5.83;;;;;;;7.83;100.00;102174.19;4975574;28;20193;-76
2021/05/30 03:56:16;;;;;;;7.47;6.60;;;;;;;8.29;100.00;102174.72;4962254;28;20234;-76
2021/05/30 03:58:42;;;;;;;7.10;6.40;;;;;;;8.39;100.00;102170.50;4947281;29;20535;-76
2021/05/30 04:01:08;;;;;;;10.70;6.33;;;;;;;8.26;100.00;102169.75;4916083;28;20321;-74
2021/05/30 04:03:33;;;;;;;7.27;6.30;;;;;;;8.24;100.00;102172.69;4948921;28;20190;-76
2021/05/30 04:05:59;;;;;;;10.53;7.83;;;;;;;8.42;100.00;102172.75;4965704;28;20230;-77
2021/05/30 04:08:24;;;;;;;9.83;8.53;;;;;;;8.51;100.00;102168.72;4986576;28;20220;-75
2021/05/30 04:10:50;;;;;;;11.37;9.73;;;;;;;8.51;100.00;102169.53;4942837;28;20230;-76
2021/05/30 04:13:18;;;;;;;12.90;9.87;;;;;;;8.52;100.00;102175.78;4941710;28;20536;-76
2021/05/30 04:15:44;;;;;;;10.23;9.17;;;;;;;8.50;100.00;102172.47;4974313;28;20662;-76
2021/05/30 04:18:10;;;;;;;9.27;8.27;;;;;;;8.46;100.00;102174.81;4957306;28;20214;-75
2021/05/30 04:20:38;;;;;;;10.67;8.20;;;;;;;8.57;100.00;102174.09;4972352;28;20312;-76
2021/05/30 04:23:03;;;;;;;8.00;7.20;;;;;;;8.63;100.00;102172.38;4972612;28;20645;-75
2021/05/30 04:25:31;;;;;;;10.83;9.10;;;;;;;8.79;100.00;102171.78;4956639;28;20288;-76
2021/05/30 04:28:00;;;;;;;11.00;8.43;;;;;;;8.91;100.00;102166.22;4941213;28;20206;-76
2021/05/30 04:30:25;;;;;;;9.53;8.53;;;;;;;8.97;100.00;102170.75;4956355;28;20194;-75
2021/05/30 04:32:53;;;;;;;13.03;9.40;;;;;;;8.89;100.00;102167.50;4924287;28;20206;-76
2021/05/30 04:35:19;;;;;;;12.40;9.80;;;;;;;9.04;100.00;102171.50;4937621;28;20223;-75
2021/05/30 04:37:45;;;;;;;12.23;9.13;;;;;;;9.02;100.00;102178.19;4969713;28;20207;-75
2021/05/30 04:40:11;;;;;;;10.63;8.80;;;;;;;9.08;100.00;102171.88;4968686;28;20714;-75
2021/05/30 04:42:39;;;;;;;9.77;8.13;;;;;;;9.11;100.00;102176.84;4952914;29;20183;-75
2021/05/30 04:45:08;;;;;;;8.43;7.03;;;;;;;9.08;100.00;102175.41;4969123;28;20268;-75
2021/05/30 04:47:34;;;;;;;7.83;6.10;;;;;;;9.11;100.00;102166.00;4953351;29;20267;-75
2021/05/30 04:49:59;;;;;;;9.13;6.53;;;;;;;9.26;100.00;102176.22;4969263;28;20738;-75
2021/05/30 04:52:30;;;;;;;8.70;6.57;;;;;;;9.39;100.00;102180.69;4967906;28;20234;-75
2021/05/30 04:54:56;;;;;;;6.47;5.83;;;;;;;9.94;100.00;102170.34;4969690;28;20179;-75
2021/05/30 04:57:23;;;;;;;8.30;6.37;;;;;;;10.24;100.00;102171.16;4952383;28;20245;-75
2021/05/30 04:59:49;;;;;;;7.37;5.93;;;;;;;10.12;100.00;102178.44;4953551;29;20195;-75
2021/05/30 05:02:15;;;;;;;7.77;6.10;;;;;;;9.91;100.00;102173.53;4951763;28;20226;-75
2021/05/30 05:04:43;;;;;;;7.47;5.90;;;;;;;9.71;100.00;102177.56;4953518;28;20554;-75
2021/05/30 05:07:11;;;;;;;7.93;6.33;;;;;;;9.77;100.00;102173.91;4952236;28;20775;-74
2021/05/30 05:09:39;;;;;;;7.50;6.70;;;;;;;9.68;100.00;102164.44;4969252;28;20744;-75
2021/05/30 05:12:05;;;;;;;7.00;6.30;;;;;;;9.69;100.00;102174.25;4935509;28;20265;-74
2021/05/30 05:14:31;;;;;;;7.73;6.83;;;;;;;9.94;100.00;102164.91;4968537;28;20293;-75
2021/05/30 05:16:56;;;;;;;8.37;6.20;;;;;;;9.83;100.00;102167.56;4952435;28;20708;-75
2021/05/30 05:19:29;;;;;;;7.40;6.47;;;;;;;9.94;100.00;102159.47;4952845;29;20222;-76
2021/05/30 05:21:58;;;;;;;9.33;6.83;;;;;;;10.06;100.00;102157.66;4951924;28;20246;-76
2021/05/30 05:24:26;;;;;;;8.57;7.20;;;;;;;10.51;100.00;102156.88;4952314;28;20574;-76
2021/05/30 05:26:54;;;;;;;8.73;7.30;;;;;;;10.74;100.00;102163.16;4920706;29;20223;-75
2021/05/30 05:29:23;;;;;;;9.27;7.50;;;;;;;10.90;100.00;102162.47;4921362;29;20621;-77
2021/05/30 05:31:51;;;;;;;10.60;8.30;;;;;;;11.01;100.00;102158.91;4947745;28;20228;-76
2021/05/30 05:34:19;;;;;;;8.33;7.43;;;;;;;11.13;100.00;102158.66;4956159;28;20180;-75
2021/05/30 05:36:45;;;;;;;11.43;8.07;;;;;;;11.26;100.00;102168.41;4987123;28;20656;-76
2021/05/30 05:39:16;;;;;;;9.80;7.93;;;;;;;11.19;100.00;102157.69;4955911;28;20221;-74
2021/05/30 05:41:48;;;;;;;9.37;8.03;;;;;;;11.41;100.00;102158.69;4923980;28;20671;-76
2021/05/30 05:44:14;;;;;;;9.93;8.50;;;;;;;11.31;100.00;102161.19;4955590;28;20183;-75
2021/05/30 05:46:42;;;;;;;10.80;8.30;;;;;;;11.66;100.00;102162.75;4922814;28;20332;-75
2021/05/30 05:49:08;;;;;;;10.27;8.53;;;;;;;11.90;100.00;102149.88;4971193;28;20194;-75
2021/05/30 05:51:36;;;;;;;15.13;11.17;;;;;;;11.56;100.00;102164.47;4954403;28;20317;-75
2021/05/30 05:54:04;;;;;;;15.73;11.53;;;;;;;11.82;100.00;102161.16;4970730;28;20723;-75
2021/05/30 05:56:32;;;;;;;17.70;13.03;;;;;;;11.92;100.00;102165.75;4955023;28;20317;-75
2021/05/30 05:59:00;;;;;;;17.73;12.63;;;;;;;11.95;100.00;102159.78;4955613;28;20596;-74
2021/05/30 06:01:32;;;;;;;16.43;12.10;;;;;;;12.18;100.00;102154.22;4938570;28;20325;-75
2021/05/30 06:04:00;;;;;;;16.43;12.13;;;;;;;12.12;100.00;102152.47;4955305;28;20193;-74
2021/05/30 06:06:26;;;;;;;16.90;11.47;;;;;;;12.27;100.00;102155.47;4954584;28;20238;-73
2021/05/30 06:08:54;;;;;;;13.97;11.00;;;;;;;12.25;100.00;102149.41;4970884;28;20187;-74
2021/05/30 06:11:22;;;;;;;14.03;10.40;;;;;;;12.40;100.00;102158.69;4954517;28;20233;-75
2021/05/30 06:13:48;;;;;;;16.20;10.97;;;;;;;12.47;100.00;102153.91;4969978;28;20233;-74
2021/05/30 06:16:13;;;;;;;18.33;11.07;;;;;;;12.70;100.00;102151.81;4951226;28;20645;-73
2021/05/30 06:18:39;;;;;;;15.17;10.57;;;;;;;13.03;100.00;102153.72;4970990;28;20301;-76
2021/05/30 06:21:10;;;;;;;17.10;10.13;;;;;;;13.18;100.00;102152.00;4954684;28;20260;-73
2021/05/30 06:23:40;;;;;;;13.73;9.57;;;;;;;13.10;100.00;102153.25;4971153;28;20186;-74
2021/05/30 06:26:11;;;;;;;10.87;8.97;;;;;;;13.40;100.00;102150.91;4954712;28;20234;-74
2021/05/30 06:28:37;;;;;;;11.27;8.37;;;;;;;13.13;100.00;102158.22;4972465;28;20178;-74
2021/05/30 06:31:05;;;;;;;10.27;8.27;;;;;;;13.51;100.00;102156.25;4972587;28;20276;-72
2021/05/30 06:33:30;;;;;;;11.13;7.90;;;;;;;13.44;100.00;102148.50;4955035;28;20536;-74
2021/05/30 06:35:56;;;;;;;10.30;7.60;;;;;;;13.48;100.00;102156.78;4970605;28;20292;-74
2021/05/30 06:38:22;;;;;;;9.37;6.40;;;;;;;13.37;100.00;102150.59;4923537;28;20218;-74
2021/05/30 06:40:49;;;;;;;7.80;5.43;;;;;;;13.17;100.00;102142.19;4954875;28;20229;-74
2021/05/30 06:43:22;;;;;;;6.77;5.20;;;;;;;13.46;100.00;102144.47;4939257;28;20182;-75
2021/05/30 06:45:50;;;;;;;6.83;5.93;;;;;;;13.73;99.81;102150.78;4955165;28;20660;-74
2021/05/30 06:48:19;;;;;;;7.23;5.60;;;;;;;13.98;97.32;102143.69;4939850;28;20178;-75
2021/05/30 06:51:11;;;;;;;8.00;5.47;;;;;;;14.16;95.84;102140.63;4942442;28;20221;-74
2021/05/30 06:53:31;;;;;;;10.13;6.53;;;;;;;14.35;96.57;102146.25;4953180;28;20249;-75
2021/05/30 06:56:03;;;;;;;8.67;6.67;;;;;;;14.20;94.69;102141.75;4963595;28;20225;-76
2021/05/30 06:58:34;;;;;;;8.40;5.80;;;;;;;14.76;93.30;102142.72;4952282;28;20241;-75
2021/05/30 07:01:00;;;;;;;13.27;6.33;;;;;;;14.85;92.04;102143.88;4951261;28;20242;-75
2021/05/30 07:03:26;;;;;;;10.37;6.60;;;;;;;14.83;93.06;102144.13;4952233;28;20218;-74
2021/05/30 07:05:57;;;;;;;8.70;6.13;;;;;;;14.71;92.53;102140.78;4971484;28;20242;-74
2021/05/30 07:08:25;;;;;;;8.43;5.63;;;;;;;15.16;90.32;102132.88;4952346;28;20186;-75
2021/05/30 07:10:52;;;;;;;7.23;5.53;;;;;;;15.20;88.18;102140.31;4967196;28;20228;-74
2021/05/30 07:13:20;;;;;;;7.67;5.23;;;;;;;15.29;87.30;102138.72;4958314;28;20663;-75
2021/05/30 07:15:51;;;;;;;8.47;4.80;;;;;;;15.06;87.50;102136.34;4928883;28;20222;-75
2021/05/30 07:18:21;;;;;;;5.90;4.77;;;;;;;15.03;87.91;102128.66;4953329;28;20635;-76
2021/05/30 07:20:47;;;;;;;6.90;4.90;;;;;;;15.34;87.78;102127.75;4952280;28;20236;-75
2021/05/30 07:23:15;;;;;;;7.20;4.90;;;;;;;15.48;87.52;102121.53;4966728;28;20173;-74
2021/05/30 07:25:43;;;;;;;5.87;4.87;;;;;;;15.43;89.48;102126.97;4959924;28;20722;-75
2021/05/30 07:28:09;;;;;;;5.77;4.37;;;;;;;15.79;86.00;102124.09;4956379;28;20218;-74
2021/05/30 07:30:37;;;;;;;8.40;4.17;;;;;;;16.25;83.23;102118.41;4967739;28;20225;-75
2021/05/30 07:33:03;;;;;;;7.20;4.17;;;;;;;16.13;81.23;102125.22;4970031;28;20277;-75
2021/05/30 07:35:41;;;;;;;5.57;3.93;;;;;;;16.04;78.69;102126.84;4937849;28;20277;-76
2021/05/30 07:38:09;;;;;;;5.40;3.85;;;;;;;15.75;79.38;102132.28;4974308;28;20923;-76
2021/05/30 07:40:35;;;;;;;5.43;4.03;;;;;;;15.54;81.30;102133.31;4940810;28;20326;-76
2021/05/30 07:43:03;;;;;;;5.47;3.63;;;;;;;16.20;78.07;102125.81;4957145;28;20226;-75
2021/05/30 07:45:29;;;;;;;5.57;4.05;;;;;;;16.26;79.84;102124.72;4957633;28;20292;-76
2021/05/30 07:47:55;;;;;;;7.90;4.20;;;;;;;15.98;79.46;102127.94;4958192;28;20197;-75
2021/05/30 07:50:23;;;;;;;6.07;4.20;;;;;;;15.81;80.45;102135.59;4952898;28;20196;-75
2021/05/30 07:52:51;;;;;;;5.47;4.03;;;;;;;15.98;81.16;102133.44;4943394;28;20194;-75
2021/05/30 07:55:19;;;;;;;5.30;3.75;;;;;;;16.26;80.80;102125.56;4957140;28;20189;-75
2021/05/30 07:57:48;;;;;;;5.28;4.00;;;;;;;16.73;77.21;102115.09;4927749;28;20207;-75
2021/05/30 08:00:16;;;;;;;5.88;3.75;;;;;;;16.99;79.22;102123.00;4942532;28;20189;-75
2021/05/30 08:02:42;;;;;;;6.97;3.97;;;;;;;16.86;75.38;102115.34;4941961;28;20830;-75
2021/05/30 08:05:16;;;;;;;4.88;3.97;;;;;;;17.03;76.50;102118.59;4942613;28;20657;-75
2021/05/30 08:07:45;;;;;;;4.63;3.65;;;;;;;16.52;75.52;102124.47;4959387;28;20645;-76
2021/05/30 08:10:14;;;;;;;4.95;3.85;;;;;;;16.66;76.22;102117.28;4958059;28;20527;-74
2021/05/30 08:12:42;;;;;;;11.65;8.57;;;;;;;16.98;77.92;102110.38;4941269;28;20193;-75
2021/05/30 08:15:11;;;;;;;5.70;4.22;;;;;;;17.24;74.74;102111.97;4957219;28;20179;-74
2021/05/30 08:17:44;;;;;;;5.22;3.55;;;;;;;17.50;74.67;102112.38;4973931;28;20644;-76
2021/05/30 08:20:16;;;;;;;5.80;3.75;;;;;;;17.26;73.64;102123.50;4951784;28;20183;-73
2021/05/30 08:22:42;;;;;;;5.25;3.25;;;;;;;17.10;71.04;102116.38;4938202;29;20548;-74
2021/05/30 08:25:08;;;;;;;3.88;3.20;;;;;;;17.14;72.80;102118.31;4971885;28;20202;-75
2021/05/30 08:27:33;;;;;;;5.38;3.53;;;;;;;17.88;72.63;102112.44;4938074;29;20171;-75
2021/05/30 08:29:59;;;;;;;3.65;3.00;;;;;;;17.78;69.39;102128.19;4954455;28;20603;-76
2021/05/30 08:32:24;;;;;;;3.85;2.95;;;;;;;17.64;67.05;102113.44;4949275;28;20301;-77
2021/05/30 08:34:50;;;;;;;4.82;3.40;;;;;;;17.21;68.20;102118.00;4970283;28;20187;-76
2021/05/30 08:37:18;;;;;;;3.67;3.10;;;;;;;17.93;66.46;102111.59;4937379;29;20704;-76
2021/05/30 08:39:47;;;;;;;4.28;3.40;;;;;;;17.97;69.72;102118.19;4938360;29;20207;-78
2021/05/30 08:42:16;;;;;;;3.92;3.30;;;;;;;17.90;68.83;102117.69;4957055;28;20210;-76
2021/05/30 08:44:44;;;;;;;5.88;3.70;;;;;;;17.98;69.22;102119.81;4950640;28;20186;-76
2021/05/30 08:47:11;;;;;;;4.15;3.17;;;;;;;18.39;64.79;102111.84;4956833;28;20233;-76
2021/05/30 08:49:37;;;;;;;4.07;3.20;;;;;;;18.54;64.98;102115.25;4971340;28;20523;-75
2021/05/30 08:52:03;;;;;;;4.75;3.42;;;;;;;18.15;63.68;102121.94;4940113;28;20230;-76
2021/05/30 08:54:32;;;;;;;6.53;4.60;;;;;;;18.23;67.02;102113.06;4957377;28;20556;-76
2021/05/30 08:57:00;;;;;;;7.30;3.95;;;;;;;18.36;66.74;102112.41;4956631;28;20226;-76
2021/05/30 08:59:33;;;;;;;4.25;3.25;;;;;;;18.47;67.22;102116.72;4941497;28;20310;-74
2021/05/30 09:02:16;;;;;;;4.85;3.72;;;;;;;18.59;66.77;102120.72;4951829;28;20219;-77
2021/05/30 09:04:53;;;;;;;5.95;4.07;;;;;;;19.08;66.17;102115.84;4953764;29;20519;-77
2021/05/30 09:07:36;;;;;;;4.75;3.30;;;;;;;18.98;62.22;102124.22;4956189;28;20230;-78
2021/05/30 09:10:08;;;;;;;5.07;3.80;;;;;;;18.82;65.69;102128.19;4942357;28;20218;-78
2021/05/30 09:12:36;;;;;;;3.60;3.25;;;;;;;18.73;58.54;102107.09;4965247;28;20225;-78
2021/05/30 09:15:07;;;;;;;4.90;3.90;;;;;;;18.69;61.63;102111.56;4945295;28;20191;-76
2021/05/30 09:17:35;;;;;;;5.05;3.20;;;;;;;18.67;60.65;102113.78;4961706;28;20590;-75
2021/05/30 09:20:05;;;;;;;4.40;3.10;;;;;;;19.16;59.17;102118.78;4970832;28;20273;-78
2021/05/30 09:22:43;;;;;;;3.72;2.97;;;;;;;18.97;54.70;102115.16;4957178;28;20233;-78
2021/05/30 09:25:10;;;;;;;3.20;2.90;;;;;;;18.67;55.58;102119.28;4947464;28;20186;-78
2021/05/30 09:27:42;;;;;;;3.53;2.78;;;;;;;18.63;53.58;102118.22;4968055;28;20503;-79
2021/05/30 09:30:28;;;;;;;3.22;2.78;;;;;;;18.87;54.09;102119.09;4950192;28;20182;-80
2021/05/30 09:32:53;;;;;;;6.13;4.50;;;;;;;18.78;59.87;102118.06;4959861;28;20185;-78
2021/05/30 09:35:27;;;;;;;7.00;4.55;;;;;;;18.89;61.20;102115.72;4975269;28;20269;-75
2021/05/30 09:38:11;;;;;;;5.95;4.45;;;;;;;18.92;59.79;102115.16;4949213;28;20233;-78
2021/05/30 09:40:41;;;;;;;5.15;3.63;;;;;;;19.50;56.86;102114.75;4965109;28;20217;-75
2021/05/30 09:43:15;;;;;;;5.45;4.00;;;;;;;19.22;54.80;102123.13;4948850;28;20175;-74
2021/05/30 09:45:55;;;;;;;6.15;4.05;;;;;;;18.84;58.29;102111.41;4976444;28;20229;-75
2021/05/30 09:48:21;;;;;;;5.30;4.10;;;;;;;19.37;60.02;102118.22;4975359;28;20261;-76
2021/05/30 09:51:02;;;;;;;5.47;3.80;;;;;;;19.16;56.06;102116.03;4960562;28;20210;-75
2021/05/30 09:53:30;;;;;;;5.55;4.10;;;;;;;19.23;57.41;102118.41;4948407;28;20181;-74
2021/05/30 09:55:58;;;;;;;5.28;4.10;;;;;;;19.71;57.48;102111.44;4961105;28;20226;-76
2021/05/30 09:58:24;;;;;;;5.65;3.40;;;;;;;19.66;53.26;102107.13;4949645;28;20210;-75
2021/05/30 10:00:56;;;;;;;4.70;4.20;;;;;;;19.70;53.57;102120.81;4944247;28;20313;-75
2021/05/30 10:03:22;;;;;;;6.63;4.65;;;;;;;19.64;53.33;102106.59;4967557;28;20538;-76
2021/05/30 10:05:52;;;;;;;5.25;3.88;;;;;;;19.81;54.13;102108.56;4946457;28;20680;-76
2021/05/30 10:08:18;;;;;;;4.25;3.80;;;;;;;19.74;54.92;102110.84;4952951;28;20178;-76
2021/05/30 10:10:49;;;;;;;4.10;3.25;;;;;;;19.82;52.06;102118.50;4958027;28;20237;-75
2021/05/30 10:13:19;;;;;;;6.35;3.22;;;;;;;20.07;51.93;102107.91;4990048;28;20213;-76
2021/05/30 10:15:47;;;;;;;6.57;4.00;;;;;;;19.42;54.96;102106.34;4958791;28;20232;-77
2021/05/30 10:18:22;;;;;;;6.50;3.85;;;;;;;19.43;54.74;102091.41;4943576;29;20218;-77
2021/05/30 10:20:50;;;;;;;4.63;3.13;;;;;;;19.76;54.03;102108.63;4939872;28;20706;-76
2021/05/30 10:23:18;;;;;;;5.28;3.65;;;;;;;19.97;52.83;102101.72;4954695;28;20182;-78
2021/05/30 10:25:43;;;;;;;6.40;3.20;;;;;;;19.84;50.60;102099.69;4954658;28;20704;-77
2021/05/30 10:28:15;;;;;;;3.85;2.67;;;;;;;19.45;49.17;102105.72;4951747;28;20194;-75
2021/05/30 10:30:47;;;;;;;4.53;3.20;;;;;;;19.70;50.35;102107.03;4970874;28;20226;-75
2021/05/30 10:33:17;;;;;;;4.90;3.38;;;;;;;19.96;50.88;102111.09;4938773;28;20197;-76
2021/05/30 10:35:47;;;;;;;3.95;3.55;;;;;;;20.46;49.62;102092.59;4954103;28;20260;-75
2021/05/30 10:38:39;;;;;;;3.50;2.80;;;;;;;20.27;50.99;102092.94;4939594;28;20630;-77
2021/05/30 10:41:20;;;;;;;4.95;3.72;;;;;;;20.65;52.03;102089.81;4954362;28;20853;-76
2021/05/30 10:43:46;;;;;;;6.32;4.40;;;;;;;20.93;51.84;102095.91;4938712;28;20265;-77
2021/05/30 10:46:12;;;;;;;5.72;3.75;;;;;;;20.62;52.08;102091.25;4958444;28;20230;-75
2021/05/30 10:48:39;;;;;;;5.40;3.33;;;;;;;20.83;49.33;102089.75;4948842;28;21104;-77
2021/05/30 10:51:39;;;;;;;3.92;2.70;;;;;;;20.84;47.83;102085.84;4953772;28;20246;-76
2021/05/30 10:54:08;;;;;;;5.43;3.25;;;;;;;20.79;51.28;102083.22;4955081;28;20626;-76
2021/05/30 10:56:39;;;;;;;7.85;4.35;;;;;;;21.09;51.15;102082.59;4972080;28;20310;-75
2021/05/30 10:59:07;;;;;;;4.25;3.00;;;;;;;20.96;48.20;102080.66;4976492;28;20312;-76
2021/05/30 11:04:25;;;;;;;4.68;3.13;;;;;;;20.43;44.86;102076.63;4978784;28;20263;-75
2021/05/30 11:07:01;;;;;;;4.57;3.08;;;;;;;20.17;48.49;102071.03;4974796;28;20704;-76
2021/05/30 11:09:48;;;;;;;4.78;3.45;;;;;;;20.98;47.11;102068.16;4963448;28;20670;-76
2021/05/30 11:12:29;;;;;;;4.90;3.10;;;;;;;21.13;44.27;102069.81;4979838;28;20766;-76
2021/05/30 11:15:10;;;;;;;3.58;2.90;;;;;;;21.08;44.26;102083.72;4958521;28;20227;-78
2021/05/30 11:17:53;;;;;;;4.75;3.67;;;;;;;21.67;46.30;102071.41;4982660;28;20233;-76
2021/05/30 11:20:42;;;;;;;4.03;3.63;;;;;;;21.78;45.38;102065.34;4987828;28;20195;-79
2021/05/30 11:23:09;;;;;;;5.25;3.30;;;;;;;21.54;46.46;102066.72;4974780;28;20190;-75
2021/05/30 11:25:48;;;;;;;6.50;3.60;;;;;;;21.26;45.64;102070.63;4989605;28;20781;-75
2021/05/30 11:28:30;;;;;;;5.78;2.90;;;;;;;21.47;42.46;102076.59;4955897;28;20228;-78
2021/05/30 11:31:01;;;;;;;3.65;2.50;;;;;;;21.80;41.17;102071.38;4946065;28;20226;-78
2021/05/30 11:33:31;;;;;;;2.30;2.10;;;;;;;21.11;39.63;102066.53;4946542;28;20244;-75